<?xml version="1.0" encoding="UTF-8" standalone="no" ?>
<gpx xmlns="http://www.topografix.com/GPX/1/1" xmlns:xsi="http://www.w3.org/2001/XMLSchema-instance" xsi:schemaLocation="http://www.topografix.com/GPX/1/1 http://www.topografix.com/GPX/1/1/gpx.xsd" version="1.1" creator="VisuGPX - https://www.visugpx.com">
  <metadata>
    <name> Lancieux</name>
    <desc><![CDATA[Promenade tres facile]]></desc>
  </metadata>
  <trk>
    <name><![CDATA[21 juin 2014]]></name>
    <cmt><![CDATA[17:26:05]]></cmt>
    <desc><![CDATA[comment ...]]></desc>
    <trkseg>
      <trkpt lat="48.52485" lon="-2.08229">
        <ele>65</ele>
        <time>2014-06-21T17:26:07Z</time>
      </trkpt>
      <trkpt lat="48.52484" lon="-2.08229">
        <ele>64</ele>
        <time>2014-06-21T17:26:08Z</time>
      </trkpt>
      <trkpt lat="48.52482" lon="-2.08231">
        <ele>58</ele>
        <time>2014-06-21T17:26:15Z</time>
      </trkpt>
      <trkpt lat="48.5248" lon="-2.08235">
        <ele>57</ele>
        <time>2014-06-21T17:26:19Z</time>
      </trkpt>
      <trkpt lat="48.52479" lon="-2.08237">
        <ele>56</ele>
        <time>2014-06-21T17:26:22Z</time>
      </trkpt>
      <trkpt lat="48.52479" lon="-2.08241">
        <ele>59</ele>
        <time>2014-06-21T17:26:32Z</time>
      </trkpt>
      <trkpt lat="48.52477" lon="-2.08245">
        <ele>60</ele>
        <time>2014-06-21T17:26:34Z</time>
      </trkpt>
      <trkpt lat="48.52453" lon="-2.08253">
        <ele>59</ele>
        <time>2014-06-21T17:26:44Z</time>
      </trkpt>
      <trkpt lat="48.52418" lon="-2.08247">
        <ele>62</ele>
        <time>2014-06-21T17:26:57Z</time>
      </trkpt>
      <trkpt lat="48.52406" lon="-2.08241">
        <ele>64</ele>
        <time>2014-06-21T17:27:02Z</time>
      </trkpt>
      <trkpt lat="48.52406" lon="-2.08222">
        <ele>61</ele>
        <time>2014-06-21T17:27:08Z</time>
      </trkpt>
      <trkpt lat="48.52418" lon="-2.08177">
        <ele>56</ele>
        <time>2014-06-21T17:27:18Z</time>
      </trkpt>
      <trkpt lat="48.52431" lon="-2.08132">
        <ele>53</ele>
        <time>2014-06-21T17:27:29Z</time>
      </trkpt>
      <trkpt lat="48.52469" lon="-2.0814">
        <ele>51</ele>
        <time>2014-06-21T17:27:38Z</time>
      </trkpt>
      <trkpt lat="48.52501" lon="-2.08139">
        <ele>52</ele>
        <time>2014-06-21T17:27:45Z</time>
      </trkpt>
      <trkpt lat="48.52557" lon="-2.08105">
        <ele>53</ele>
        <time>2014-06-21T17:27:57Z</time>
      </trkpt>
      <trkpt lat="48.52615" lon="-2.08044">
        <ele>57</ele>
        <time>2014-06-21T17:28:18Z</time>
      </trkpt>
      <trkpt lat="48.52626" lon="-2.08046">
        <ele>62</ele>
        <time>2014-06-21T17:28:30Z</time>
      </trkpt>
      <trkpt lat="48.5263" lon="-2.08046">
        <ele>64</ele>
        <time>2014-06-21T17:28:32Z</time>
      </trkpt>
      <trkpt lat="48.52656" lon="-2.08042">
        <ele>64</ele>
        <time>2014-06-21T17:28:43Z</time>
      </trkpt>
      <trkpt lat="48.52679" lon="-2.08031">
        <ele>70</ele>
        <time>2014-06-21T17:28:55Z</time>
      </trkpt>
      <trkpt lat="48.52738" lon="-2.08051">
        <ele>64</ele>
        <time>2014-06-21T17:29:25Z</time>
      </trkpt>
      <trkpt lat="48.528" lon="-2.08073">
        <ele>70</ele>
        <time>2014-06-21T17:29:53Z</time>
      </trkpt>
      <trkpt lat="48.52887" lon="-2.08075">
        <ele>65</ele>
        <time>2014-06-21T17:30:14Z</time>
      </trkpt>
      <trkpt lat="48.52993" lon="-2.08068">
        <ele>64</ele>
        <time>2014-06-21T17:30:40Z</time>
      </trkpt>
      <trkpt lat="48.53005" lon="-2.08067">
        <ele>66</ele>
        <time>2014-06-21T17:30:43Z</time>
      </trkpt>
      <trkpt lat="48.53093" lon="-2.08079">
        <ele>66</ele>
        <time>2014-06-21T17:31:10Z</time>
      </trkpt>
      <trkpt lat="48.53158" lon="-2.08089">
        <ele>68</ele>
        <time>2014-06-21T17:31:30Z</time>
      </trkpt>
      <trkpt lat="48.53214" lon="-2.08097">
        <ele>71</ele>
        <time>2014-06-21T17:31:48Z</time>
      </trkpt>
      <trkpt lat="48.53221" lon="-2.08097">
        <ele>73</ele>
        <time>2014-06-21T17:31:50Z</time>
      </trkpt>
      <trkpt lat="48.53281" lon="-2.08101">
        <ele>72</ele>
        <time>2014-06-21T17:32:10Z</time>
      </trkpt>
      <trkpt lat="48.53346" lon="-2.08071">
        <ele>70</ele>
        <time>2014-06-21T17:32:30Z</time>
      </trkpt>
      <trkpt lat="48.53412" lon="-2.08034">
        <ele>71</ele>
        <time>2014-06-21T17:32:50Z</time>
      </trkpt>
      <trkpt lat="48.53498" lon="-2.07978">
        <ele>72</ele>
        <time>2014-06-21T17:33:20Z</time>
      </trkpt>
      <trkpt lat="48.53588" lon="-2.07948">
        <ele>77</ele>
        <time>2014-06-21T17:33:47Z</time>
      </trkpt>
      <trkpt lat="48.53597" lon="-2.07945">
        <ele>81</ele>
        <time>2014-06-21T17:33:50Z</time>
      </trkpt>
      <trkpt lat="48.53691" lon="-2.0795">
        <ele>80</ele>
        <time>2014-06-21T17:34:20Z</time>
      </trkpt>
      <trkpt lat="48.53828" lon="-2.07975">
        <ele>76</ele>
        <time>2014-06-21T17:34:50Z</time>
      </trkpt>
      <trkpt lat="48.53949" lon="-2.07995">
        <ele>72</ele>
        <time>2014-06-21T17:35:20Z</time>
      </trkpt>
      <trkpt lat="48.5408" lon="-2.08015">
        <ele>69</ele>
        <time>2014-06-21T17:35:50Z</time>
      </trkpt>
      <trkpt lat="48.54226" lon="-2.07948">
        <ele>65</ele>
        <time>2014-06-21T17:36:20Z</time>
      </trkpt>
      <trkpt lat="48.54386" lon="-2.08001">
        <ele>66</ele>
        <time>2014-06-21T17:36:50Z</time>
      </trkpt>
      <trkpt lat="48.54473" lon="-2.08037">
        <ele>65</ele>
        <time>2014-06-21T17:37:20Z</time>
      </trkpt>
      <trkpt lat="48.54502" lon="-2.08032">
        <ele>62</ele>
        <time>2014-06-21T17:37:28Z</time>
      </trkpt>
      <trkpt lat="48.54638" lon="-2.07925">
        <ele>58</ele>
        <time>2014-06-21T17:37:58Z</time>
      </trkpt>
      <trkpt lat="48.54677" lon="-2.07914">
        <ele>59</ele>
        <time>2014-06-21T17:38:06Z</time>
      </trkpt>
      <trkpt lat="48.5483" lon="-2.0782">
        <ele>55</ele>
        <time>2014-06-21T17:38:36Z</time>
      </trkpt>
      <trkpt lat="48.54876" lon="-2.07781">
        <ele>52</ele>
        <time>2014-06-21T17:38:44Z</time>
      </trkpt>
      <trkpt lat="48.55033" lon="-2.07697">
        <ele>53</ele>
        <time>2014-06-21T17:39:14Z</time>
      </trkpt>
      <trkpt lat="48.55062" lon="-2.07693">
        <ele>54</ele>
        <time>2014-06-21T17:39:23Z</time>
      </trkpt>
      <trkpt lat="48.55137" lon="-2.07731">
        <ele>53</ele>
        <time>2014-06-21T17:39:43Z</time>
      </trkpt>
      <trkpt lat="48.55213" lon="-2.07815">
        <ele>58</ele>
        <time>2014-06-21T17:40:13Z</time>
      </trkpt>
      <trkpt lat="48.55257" lon="-2.07896">
        <ele>61</ele>
        <time>2014-06-21T17:40:41Z</time>
      </trkpt>
      <trkpt lat="48.55273" lon="-2.08004">
        <ele>63</ele>
        <time>2014-06-21T17:41:11Z</time>
      </trkpt>
      <trkpt lat="48.55283" lon="-2.08098">
        <ele>64</ele>
        <time>2014-06-21T17:41:32Z</time>
      </trkpt>
      <trkpt lat="48.55291" lon="-2.08131">
        <ele>66</ele>
        <time>2014-06-21T17:41:40Z</time>
      </trkpt>
      <trkpt lat="48.55386" lon="-2.08169">
        <ele>63</ele>
        <time>2014-06-21T17:42:10Z</time>
      </trkpt>
      <trkpt lat="48.55501" lon="-2.0821">
        <ele>59</ele>
        <time>2014-06-21T17:42:40Z</time>
      </trkpt>
      <trkpt lat="48.5563" lon="-2.08253">
        <ele>57</ele>
        <time>2014-06-21T17:43:10Z</time>
      </trkpt>
      <trkpt lat="48.5576" lon="-2.08328">
        <ele>53</ele>
        <time>2014-06-21T17:43:40Z</time>
      </trkpt>
      <trkpt lat="48.55934" lon="-2.08386">
        <ele>56</ele>
        <time>2014-06-21T17:44:10Z</time>
      </trkpt>
      <trkpt lat="48.56104" lon="-2.08435">
        <ele>55</ele>
        <time>2014-06-21T17:44:43Z</time>
      </trkpt>
      <trkpt lat="48.56236" lon="-2.08474">
        <ele>58</ele>
        <time>2014-06-21T17:45:21Z</time>
      </trkpt>
      <trkpt lat="48.56275" lon="-2.08484">
        <ele>60</ele>
        <time>2014-06-21T17:45:32Z</time>
      </trkpt>
      <trkpt lat="48.56331" lon="-2.0848">
        <ele>61</ele>
        <time>2014-06-21T17:45:52Z</time>
      </trkpt>
      <trkpt lat="48.5644" lon="-2.0847">
        <ele>50</ele>
        <time>2014-06-21T17:46:21Z</time>
      </trkpt>
      <trkpt lat="48.5643" lon="-2.08515">
        <ele>51</ele>
        <time>2014-06-21T17:46:32Z</time>
      </trkpt>
      <trkpt lat="48.56423" lon="-2.08631">
        <ele>51</ele>
        <time>2014-06-21T17:46:52Z</time>
      </trkpt>
      <trkpt lat="48.56371" lon="-2.0875">
        <ele>49</ele>
        <time>2014-06-21T17:47:12Z</time>
      </trkpt>
      <trkpt lat="48.5629" lon="-2.08989">
        <ele>43</ele>
        <time>2014-06-21T17:47:42Z</time>
      </trkpt>
      <trkpt lat="48.56249" lon="-2.09114">
        <ele>38</ele>
        <time>2014-06-21T17:47:55Z</time>
      </trkpt>
      <trkpt lat="48.56267" lon="-2.09156">
        <ele>38</ele>
        <time>2014-06-21T17:47:59Z</time>
      </trkpt>
      <trkpt lat="48.56327" lon="-2.09249">
        <ele>40</ele>
        <time>2014-06-21T17:48:11Z</time>
      </trkpt>
      <trkpt lat="48.56351" lon="-2.09314">
        <ele>41</ele>
        <time>2014-06-21T17:48:21Z</time>
      </trkpt>
      <trkpt lat="48.56339" lon="-2.09373">
        <ele>39</ele>
        <time>2014-06-21T17:48:30Z</time>
      </trkpt>
      <trkpt lat="48.56327" lon="-2.09417">
        <ele>46</ele>
        <time>2014-06-21T17:48:42Z</time>
      </trkpt>
      <trkpt lat="48.56323" lon="-2.09572">
        <ele>56</ele>
        <time>2014-06-21T17:49:19Z</time>
      </trkpt>
      <trkpt lat="48.56312" lon="-2.09721">
        <ele>59</ele>
        <time>2014-06-21T17:49:49Z</time>
      </trkpt>
      <trkpt lat="48.56295" lon="-2.0989">
        <ele>61</ele>
        <time>2014-06-21T17:50:21Z</time>
      </trkpt>
      <trkpt lat="48.56256" lon="-2.10055">
        <ele>60</ele>
        <time>2014-06-21T17:50:51Z</time>
      </trkpt>
      <trkpt lat="48.56227" lon="-2.10183">
        <ele>62</ele>
        <time>2014-06-21T17:51:11Z</time>
      </trkpt>
      <trkpt lat="48.5617" lon="-2.10361">
        <ele>63</ele>
        <time>2014-06-21T17:51:41Z</time>
      </trkpt>
      <trkpt lat="48.56139" lon="-2.10472">
        <ele>59</ele>
        <time>2014-06-21T17:52:01Z</time>
      </trkpt>
      <trkpt lat="48.5614" lon="-2.10473">
        <ele>61</ele>
        <time>2014-06-21T17:52:04Z</time>
      </trkpt>
      <trkpt lat="48.56142" lon="-2.10471">
        <ele>61</ele>
        <time>2014-06-21T17:52:13Z</time>
      </trkpt>
      <trkpt lat="48.56141" lon="-2.10477">
        <ele>60</ele>
        <time>2014-06-21T17:53:09Z</time>
      </trkpt>
      <trkpt lat="48.56093" lon="-2.10691">
        <ele>58</ele>
        <time>2014-06-21T17:53:39Z</time>
      </trkpt>
      <trkpt lat="48.5607" lon="-2.10776">
        <ele>58</ele>
        <time>2014-06-21T17:53:48Z</time>
      </trkpt>
      <trkpt lat="48.55983" lon="-2.11003">
        <ele>55</ele>
        <time>2014-06-21T17:54:14Z</time>
      </trkpt>
      <trkpt lat="48.55984" lon="-2.11077">
        <ele>52</ele>
        <time>2014-06-21T17:54:23Z</time>
      </trkpt>
      <trkpt lat="48.56014" lon="-2.1111">
        <ele>51</ele>
        <time>2014-06-21T17:54:29Z</time>
      </trkpt>
      <trkpt lat="48.56059" lon="-2.1112">
        <ele>53</ele>
        <time>2014-06-21T17:54:36Z</time>
      </trkpt>
      <trkpt lat="48.56193" lon="-2.11183">
        <ele>56</ele>
        <time>2014-06-21T17:55:06Z</time>
      </trkpt>
      <trkpt lat="48.56233" lon="-2.11225">
        <ele>56</ele>
        <time>2014-06-21T17:55:16Z</time>
      </trkpt>
      <trkpt lat="48.56368" lon="-2.11371">
        <ele>50</ele>
        <time>2014-06-21T17:55:46Z</time>
      </trkpt>
      <trkpt lat="48.56479" lon="-2.11476">
        <ele>50</ele>
        <time>2014-06-21T17:56:16Z</time>
      </trkpt>
      <trkpt lat="48.56488" lon="-2.1149">
        <ele>50</ele>
        <time>2014-06-21T17:56:19Z</time>
      </trkpt>
      <trkpt lat="48.56549" lon="-2.11669">
        <ele>50</ele>
        <time>2014-06-21T17:56:49Z</time>
      </trkpt>
      <trkpt lat="48.56611" lon="-2.11703">
        <ele>52</ele>
        <time>2014-06-21T17:57:03Z</time>
      </trkpt>
      <trkpt lat="48.5671" lon="-2.1172">
        <ele>53</ele>
        <time>2014-06-21T17:57:33Z</time>
      </trkpt>
      <trkpt lat="48.56732" lon="-2.11726">
        <ele>51</ele>
        <time>2014-06-21T17:57:40Z</time>
      </trkpt>
      <trkpt lat="48.56913" lon="-2.11835">
        <ele>43</ele>
        <time>2014-06-21T17:58:10Z</time>
      </trkpt>
      <trkpt lat="48.5708" lon="-2.11925">
        <ele>45</ele>
        <time>2014-06-21T17:58:41Z</time>
      </trkpt>
      <trkpt lat="48.57094" lon="-2.11937">
        <ele>44</ele>
        <time>2014-06-21T17:58:45Z</time>
      </trkpt>
      <trkpt lat="48.57097" lon="-2.11955">
        <ele>45</ele>
        <time>2014-06-21T17:58:48Z</time>
      </trkpt>
      <trkpt lat="48.57098" lon="-2.12032">
        <ele>45</ele>
        <time>2014-06-21T17:59:03Z</time>
      </trkpt>
      <trkpt lat="48.57176" lon="-2.12166">
        <ele>38</ele>
        <time>2014-06-21T17:59:33Z</time>
      </trkpt>
      <trkpt lat="48.57207" lon="-2.1219">
        <ele>38</ele>
        <time>2014-06-21T17:59:40Z</time>
      </trkpt>
      <trkpt lat="48.57299" lon="-2.12305">
        <ele>40</ele>
        <time>2014-06-21T18:00:10Z</time>
      </trkpt>
      <trkpt lat="48.57373" lon="-2.12408">
        <ele>43</ele>
        <time>2014-06-21T18:00:40Z</time>
      </trkpt>
      <trkpt lat="48.57388" lon="-2.12413">
        <ele>44</ele>
        <time>2014-06-21T18:00:45Z</time>
      </trkpt>
      <trkpt lat="48.57389" lon="-2.12417">
        <ele>44</ele>
        <time>2014-06-21T18:00:46Z</time>
      </trkpt>
      <trkpt lat="48.57388" lon="-2.12425">
        <ele>45</ele>
        <time>2014-06-21T18:00:48Z</time>
      </trkpt>
      <trkpt lat="48.57358" lon="-2.12507">
        <ele>42</ele>
        <time>2014-06-21T18:01:56Z</time>
      </trkpt>
      <trkpt lat="48.57353" lon="-2.12564">
        <ele>42</ele>
        <time>2014-06-21T18:02:09Z</time>
      </trkpt>
      <trkpt lat="48.57363" lon="-2.12577">
        <ele>42</ele>
        <time>2014-06-21T18:02:13Z</time>
      </trkpt>
      <trkpt lat="48.57451" lon="-2.12621">
        <ele>44</ele>
        <time>2014-06-21T18:02:41Z</time>
      </trkpt>
      <trkpt lat="48.57486" lon="-2.12645">
        <ele>39</ele>
        <time>2014-06-21T18:02:54Z</time>
      </trkpt>
      <trkpt lat="48.57486" lon="-2.12654">
        <ele>40</ele>
        <time>2014-06-21T18:02:56Z</time>
      </trkpt>
      <trkpt lat="48.57453" lon="-2.12761">
        <ele>35</ele>
        <time>2014-06-21T18:03:27Z</time>
      </trkpt>
      <trkpt lat="48.57476" lon="-2.1285">
        <ele>32</ele>
        <time>2014-06-21T18:03:57Z</time>
      </trkpt>
      <trkpt lat="48.57491" lon="-2.12949">
        <ele>28</ele>
        <time>2014-06-21T18:04:27Z</time>
      </trkpt>
      <trkpt lat="48.57497" lon="-2.13038">
        <ele>28</ele>
        <time>2014-06-21T18:04:55Z</time>
      </trkpt>
      <trkpt lat="48.57488" lon="-2.1307">
        <ele>27</ele>
        <time>2014-06-21T18:05:05Z</time>
      </trkpt>
      <trkpt lat="48.57483" lon="-2.13093">
        <ele>33</ele>
        <time>2014-06-21T18:05:13Z</time>
      </trkpt>
      <trkpt lat="48.57483" lon="-2.13097">
        <ele>35</ele>
        <time>2014-06-21T18:05:14Z</time>
      </trkpt>
      <trkpt lat="48.57449" lon="-2.13198">
        <ele>27</ele>
        <time>2014-06-21T18:05:44Z</time>
      </trkpt>
      <trkpt lat="48.57414" lon="-2.13333">
        <ele>25</ele>
        <time>2014-06-21T18:06:22Z</time>
      </trkpt>
      <trkpt lat="48.57371" lon="-2.13408">
        <ele>24</ele>
        <time>2014-06-21T18:06:44Z</time>
      </trkpt>
      <trkpt lat="48.57367" lon="-2.13413">
        <ele>28</ele>
        <time>2014-06-21T18:06:46Z</time>
      </trkpt>
      <trkpt lat="48.57355" lon="-2.13429">
        <ele>27</ele>
        <time>2014-06-21T18:06:52Z</time>
      </trkpt>
      <trkpt lat="48.57331" lon="-2.13472">
        <ele>26</ele>
        <time>2014-06-21T18:07:11Z</time>
      </trkpt>
      <trkpt lat="48.57331" lon="-2.13485">
        <ele>29</ele>
        <time>2014-06-21T18:08:03Z</time>
      </trkpt>
      <trkpt lat="48.57325" lon="-2.13503">
        <ele>29</ele>
        <time>2014-06-21T18:08:07Z</time>
      </trkpt>
      <trkpt lat="48.57325" lon="-2.13512">
        <ele>25</ele>
        <time>2014-06-21T18:08:09Z</time>
      </trkpt>
      <trkpt lat="48.57328" lon="-2.13518">
        <ele>26</ele>
        <time>2014-06-21T18:08:11Z</time>
      </trkpt>
      <trkpt lat="48.574" lon="-2.1356">
        <ele>26</ele>
        <time>2014-06-21T18:08:30Z</time>
      </trkpt>
      <trkpt lat="48.57551" lon="-2.13676">
        <ele>22</ele>
        <time>2014-06-21T18:09:02Z</time>
      </trkpt>
      <trkpt lat="48.57582" lon="-2.13693">
        <ele>23</ele>
        <time>2014-06-21T18:09:12Z</time>
      </trkpt>
      <trkpt lat="48.57662" lon="-2.13702">
        <ele>24</ele>
        <time>2014-06-21T18:09:37Z</time>
      </trkpt>
      <trkpt lat="48.5773" lon="-2.13712">
        <ele>26</ele>
        <time>2014-06-21T18:09:57Z</time>
      </trkpt>
      <trkpt lat="48.57767" lon="-2.13714">
        <ele>28</ele>
        <time>2014-06-21T18:10:09Z</time>
      </trkpt>
      <trkpt lat="48.57792" lon="-2.13719">
        <ele>29</ele>
        <time>2014-06-21T18:10:17Z</time>
      </trkpt>
      <trkpt lat="48.57825" lon="-2.13728">
        <ele>30</ele>
        <time>2014-06-21T18:10:27Z</time>
      </trkpt>
      <trkpt lat="48.57848" lon="-2.13735">
        <ele>31</ele>
        <time>2014-06-21T18:10:33Z</time>
      </trkpt>
      <trkpt lat="48.57954" lon="-2.13823">
        <ele>33</ele>
        <time>2014-06-21T18:11:05Z</time>
      </trkpt>
      <trkpt lat="48.57985" lon="-2.13856">
        <ele>34</ele>
        <time>2014-06-21T18:11:17Z</time>
      </trkpt>
      <trkpt lat="48.58023" lon="-2.13881">
        <ele>36</ele>
        <time>2014-06-21T18:11:31Z</time>
      </trkpt>
      <trkpt lat="48.58038" lon="-2.13875">
        <ele>37</ele>
        <time>2014-06-21T18:11:35Z</time>
      </trkpt>
      <trkpt lat="48.58042" lon="-2.13878">
        <ele>37</ele>
        <time>2014-06-21T18:11:36Z</time>
      </trkpt>
      <trkpt lat="48.5805" lon="-2.13915">
        <ele>33</ele>
        <time>2014-06-21T18:11:42Z</time>
      </trkpt>
      <trkpt lat="48.58059" lon="-2.13951">
        <ele>35</ele>
        <time>2014-06-21T18:11:49Z</time>
      </trkpt>
      <trkpt lat="48.58068" lon="-2.13959">
        <ele>35</ele>
        <time>2014-06-21T18:11:52Z</time>
      </trkpt>
      <trkpt lat="48.58079" lon="-2.13963">
        <ele>35</ele>
        <time>2014-06-21T18:11:56Z</time>
      </trkpt>
      <trkpt lat="48.58108" lon="-2.1398">
        <ele>38</ele>
        <time>2014-06-21T18:12:07Z</time>
      </trkpt>
      <trkpt lat="48.58115" lon="-2.13987">
        <ele>42</ele>
        <time>2014-06-21T18:12:10Z</time>
      </trkpt>
      <trkpt lat="48.58116" lon="-2.13991">
        <ele>42</ele>
        <time>2014-06-21T18:12:11Z</time>
      </trkpt>
      <trkpt lat="48.58115" lon="-2.14">
        <ele>40</ele>
        <time>2014-06-21T18:12:13Z</time>
      </trkpt>
      <trkpt lat="48.58112" lon="-2.14004">
        <ele>39</ele>
        <time>2014-06-21T18:12:16Z</time>
      </trkpt>
      <trkpt lat="48.58152" lon="-2.13996">
        <ele>36</ele>
        <time>2014-06-21T18:12:30Z</time>
      </trkpt>
      <trkpt lat="48.58156" lon="-2.13997">
        <ele>35</ele>
        <time>2014-06-21T18:12:31Z</time>
      </trkpt>
      <trkpt lat="48.58159" lon="-2.14001">
        <ele>35</ele>
        <time>2014-06-21T18:12:32Z</time>
      </trkpt>
      <trkpt lat="48.5816" lon="-2.14006">
        <ele>35</ele>
        <time>2014-06-21T18:12:33Z</time>
      </trkpt>
      <trkpt lat="48.58159" lon="-2.14024">
        <ele>35</ele>
        <time>2014-06-21T18:12:36Z</time>
      </trkpt>
      <trkpt lat="48.58139" lon="-2.14112">
        <ele>33</ele>
        <time>2014-06-21T18:12:52Z</time>
      </trkpt>
      <trkpt lat="48.58141" lon="-2.14116">
        <ele>33</ele>
        <time>2014-06-21T18:12:54Z</time>
      </trkpt>
      <trkpt lat="48.58222" lon="-2.14138">
        <ele>26</ele>
        <time>2014-06-21T18:13:13Z</time>
      </trkpt>
      <trkpt lat="48.58279" lon="-2.14146">
        <ele>27</ele>
        <time>2014-06-21T18:13:25Z</time>
      </trkpt>
      <trkpt lat="48.58315" lon="-2.14163">
        <ele>29</ele>
        <time>2014-06-21T18:13:33Z</time>
      </trkpt>
      <trkpt lat="48.58428" lon="-2.14264">
        <ele>29</ele>
        <time>2014-06-21T18:14:03Z</time>
      </trkpt>
      <trkpt lat="48.58462" lon="-2.14286">
        <ele>27</ele>
        <time>2014-06-21T18:14:13Z</time>
      </trkpt>
      <trkpt lat="48.58517" lon="-2.14272">
        <ele>27</ele>
        <time>2014-06-21T18:14:33Z</time>
      </trkpt>
      <trkpt lat="48.58544" lon="-2.14246">
        <ele>25</ele>
        <time>2014-06-21T18:14:41Z</time>
      </trkpt>
      <trkpt lat="48.58548" lon="-2.14249">
        <ele>25</ele>
        <time>2014-06-21T18:14:43Z</time>
      </trkpt>
      <trkpt lat="48.58548" lon="-2.14252">
        <ele>26</ele>
        <time>2014-06-21T18:14:44Z</time>
      </trkpt>
      <trkpt lat="48.58548" lon="-2.1426">
        <ele>28</ele>
        <time>2014-06-21T18:14:47Z</time>
      </trkpt>
    </trkseg>
  </trk>
</gpx>